Time;durP1;ratioP1;P1;durP2;ratioP2;P2;SDS_P1;SDS_P2;PMS_P1;PMS_P2;Temp;Humidity;BMP_temperature;BMP_pressure;BME280_temperature;BME280_humidity;BME280_pressure;Samples;Min_cycle;Max_cycle;Signal;HPM_P1;HPM_P2
2022/05/06 00:02:23;;;;;;;28.13;21.92;;;9.50;99.90;;;;;;4961102;28;92971;-34
2022/05/06 00:04:49;;;;;;;25.42;21.27;;;9.50;99.90;;;;;;4960269;28;89485;-37
2022/05/06 00:07:16;;;;;;;27.73;20.08;;;9.50;99.90;;;;;;4960890;28;88220;-39
2022/05/06 00:09:42;;;;;;;27.20;20.92;;;9.50;99.90;;;;;;4946348;28;89835;-35
2022/05/06 00:12:10;;;;;;;27.33;20.42;;;9.50;99.90;;;;;;4940948;28;89985;-33
2022/05/06 00:14:36;;;;;;;26.98;20.40;;;9.40;99.90;;;;;;4940970;28;89774;-37
2022/05/06 00:17:03;;;;;;;29.48;21.00;;;9.40;99.90;;;;;;4941249;28;88319;-33
2022/05/06 00:19:29;;;;;;;27.97;19.70;;;9.30;99.90;;;;;;4940762;28;90875;-37
2022/05/06 00:21:54;;;;;;;25.17;19.50;;;9.30;99.90;;;;;;4939298;28;90845;-35
2022/05/06 00:24:20;;;;;;;28.65;21.92;;;9.30;99.90;;;;;;4941153;28;91296;-34
2022/05/06 00:26:46;;;;;;;28.10;21.48;;;9.20;99.90;;;;;;4940761;28;87636;-34
2022/05/06 00:29:11;;;;;;;26.13;19.60;;;9.20;99.90;;;;;;4941076;28;90165;-35
2022/05/06 00:31:37;;;;;;;30.67;21.83;;;9.20;99.90;;;;;;4939273;28;90159;-37
2022/05/06 00:34:02;;;;;;;30.45;21.23;;;9.10;99.90;;;;;;4940731;28;89582;-34
2022/05/06 00:36:28;;;;;;;26.00;19.27;;;9.00;99.90;;;;;;4940975;28;88396;-35
2022/05/06 00:38:54;;;;;;;29.10;21.30;;;9.00;99.90;;;;;;4964883;22;90195;-33
2022/05/06 00:41:20;;;;;;;29.77;19.92;;;9.00;99.90;;;;;;4902162;28;89772;-33
2022/05/06 00:43:46;;;;;;;29.90;22.55;;;9.00;99.90;;;;;;4901420;28;90080;-34
2022/05/06 00:46:15;;;;;;;34.55;21.65;;;8.90;99.90;;;;;;4901596;28;90172;-37
2022/05/06 00:48:49;;;;;;;23.20;19.40;;;8.90;99.90;;;;;;4902097;28;90087;-35
2022/05/06 00:51:20;;;;;;;29.40;21.15;;;8.90;99.90;;;;;;4901593;28;90248;-33
2022/05/06 00:53:47;;;;;;;25.60;19.65;;;8.90;99.90;;;;;;4901232;28;89608;-36
2022/05/06 00:56:15;;;;;;;30.83;20.17;;;8.90;99.90;;;;;;4901558;28;89482;-36
2022/05/06 00:58:43;;;;;;;28.35;22.80;;;8.80;99.90;;;;;;4901327;28;90678;-37
2022/05/06 01:01:08;;;;;;;29.83;23.60;;;8.70;99.90;;;;;;4901977;28;89710;-34
2022/05/06 01:03:34;;;;;;;26.20;20.25;;;8.70;99.90;;;;;;4901774;28;89537;-38
2022/05/06 01:06:07;;;;;;;31.63;21.40;;;8.70;99.90;;;;;;4901628;28;90213;-34
2022/05/06 01:08:34;;;;;;;27.63;20.63;;;8.70;99.90;;;;;;4901323;28;91582;-35
2022/05/06 01:11:00;;;;;;;33.17;21.05;;;8.60;99.90;;;;;;4901180;28;91153;-34
2022/05/06 01:13:27;;;;;;;32.67;21.05;;;8.60;99.90;;;;;;4901706;28;89516;-33
2022/05/06 01:15:56;;;;;;;27.35;19.55;;;8.70;99.90;;;;;;4901147;28;89087;-35
2022/05/06 01:18:22;;;;;;;29.90;22.08;;;8.60;99.90;;;;;;4900990;28;90383;-36
2022/05/06 01:20:55;;;;;;;26.27;22.08;;;8.50;99.90;;;;;;4899837;28;89820;-33
2022/05/06 01:23:22;;;;;;;29.15;21.70;;;8.50;99.90;;;;;;4901017;28;89733;-34
2022/05/06 01:25:48;;;;;;;28.67;21.23;;;8.40;99.90;;;;;;4901300;28;89326;-37
2022/05/06 01:28:14;;;;;;;29.77;21.42;;;8.30;99.90;;;;;;4901555;28;90214;-37
2022/05/06 01:30:48;;;;;;;28.77;21.60;;;8.30;99.90;;;;;;4900488;28;89607;-33
2022/05/06 01:33:15;;;;;;;30.75;21.08;;;8.30;99.90;;;;;;4900437;28;89817;-34
2022/05/06 01:35:44;;;;;;;30.15;21.33;;;8.30;99.90;;;;;;4900240;28;89578;-34
2022/05/06 01:38:15;;;;;;;33.25;23.17;;;8.30;99.90;;;;;;4901337;28;91782;-35
2022/05/06 01:40:47;;;;;;;31.08;22.38;;;8.30;99.90;;;;;;4900827;28;90192;-37
2022/05/06 01:43:15;;;;;;;30.83;21.00;;;8.30;99.90;;;;;;4901093;28;89146;-37
2022/05/06 01:45:43;;;;;;;27.55;20.80;;;8.30;99.90;;;;;;4901019;28;89745;-35
2022/05/06 01:48:09;;;;;;;25.85;20.75;;;8.30;99.90;;;;;;4901135;28;92000;-35
2022/05/06 01:50:39;;;;;;;31.80;22.50;;;8.30;99.90;;;;;;4900836;28;89396;-33
2022/05/06 01:53:06;;;;;;;29.85;20.73;;;8.30;99.90;;;;;;4901174;28;88902;-33
2022/05/06 01:55:32;;;;;;;27.95;17.98;;;8.30;99.90;;;;;;4901229;28;89710;-34
2022/05/06 01:57:58;;;;;;;30.35;19.67;;;8.30;99.90;;;;;;4900880;28;90134;-35
2022/05/06 02:00:24;;;;;;;25.73;17.30;;;8.20;99.90;;;;;;4900210;28;89427;-38
2022/05/06 02:02:49;;;;;;;27.52;20.20;;;8.20;99.90;;;;;;4901089;28;91597;-34
2022/05/06 02:05:19;;;;;;;23.08;20.67;;;8.10;99.90;;;;;;4900641;28;88350;-34
2022/05/06 02:07:48;;;;;;;28.45;22.15;;;8.20;99.90;;;;;;4899688;28;90292;-38
2022/05/06 02:10:15;;;;;;;29.50;21.50;;;8.10;99.90;;;;;;4900045;28;90227;-38
2022/05/06 02:12:41;;;;;;;26.92;19.25;;;8.10;99.90;;;;;;4900903;28;89638;-35
2022/05/06 02:15:07;;;;;;;24.73;20.17;;;8.10;99.90;;;;;;4900790;28;88362;-32
2022/05/06 02:17:33;;;;;;;27.33;20.40;;;8.10;99.90;;;;;;4900846;28;91352;-36
2022/05/06 02:19:58;;;;;;;28.58;21.85;;;8.10;99.90;;;;;;4900632;28;89712;-32
2022/05/06 02:22:27;;;;;;;35.47;23.25;;;8.00;99.90;;;;;;4900221;28;89645;-33
2022/05/06 02:24:55;;;;;;;29.70;23.05;;;8.00;99.90;;;;;;4899427;28;90318;-36
2022/05/06 02:27:20;;;;;;;37.10;25.43;;;8.00;99.90;;;;;;4899767;28;89651;-34
2022/05/06 02:35:15;;;;;;;32.65;24.23;;;7.90;99.90;;;;;;4901182;28;89535;-34
2022/05/06 02:37:41;;;;;;;25.25;21.30;;;7.80;99.90;;;;;;4899911;28;90217;-33
2022/05/06 02:40:08;;;;;;;29.92;22.02;;;7.80;99.90;;;;;;4900385;28;88330;-33
2022/05/06 02:42:34;;;;;;;32.67;23.20;;;7.80;99.90;;;;;;4901040;28;89866;-33
2022/05/06 02:44:59;;;;;;;27.08;21.02;;;7.70;99.90;;;;;;4900975;28;89189;-33
2022/05/06 02:47:25;;;;;;;26.45;21.25;;;7.70;99.90;;;;;;4904132;28;90699;-36
2022/05/06 02:49:52;;;;;;;25.95;20.73;;;7.60;99.90;;;;;;4902633;28;91216;-36
2022/05/06 02:52:18;;;;;;;26.63;21.05;;;7.60;99.90;;;;;;4903342;28;90003;-35
2022/05/06 02:54:45;;;;;;;24.67;21.10;;;7.60;99.90;;;;;;4903967;28;89443;-34
2022/05/06 02:57:10;;;;;;;27.73;23.30;;;7.50;99.90;;;;;;4903027;28;90152;-35
2022/05/06 02:59:36;;;;;;;28.27;22.52;;;7.50;99.90;;;;;;4903390;28;90763;-34
2022/05/06 03:02:02;;;;;;;31.55;23.83;;;7.50;99.90;;;;;;4903659;28;90905;-35
2022/05/06 03:04:28;;;;;;;33.33;23.90;;;7.50;99.90;;;;;;4903252;28;89008;-34
2022/05/06 03:06:53;;;;;;;32.45;22.80;;;7.50;99.90;;;;;;4903789;28;91198;-37
2022/05/06 03:09:19;;;;;;;30.45;23.52;;;7.50;99.90;;;;;;4918188;28;89694;-33
2022/05/06 03:11:45;;;;;;;34.03;23.23;;;7.50;99.90;;;;;;4903063;28;89874;-37
2022/05/06 03:14:11;;;;;;;29.50;23.33;;;7.50;99.90;;;;;;4903023;28;89745;-34
2022/05/06 03:16:37;;;;;;;33.22;25.83;;;7.50;99.90;;;;;;4902843;28;90601;-40
2022/05/06 03:19:02;;;;;;;34.25;23.77;;;7.50;99.90;;;;;;4903497;28;89642;-32
2022/05/06 03:21:28;;;;;;;35.65;26.55;;;7.50;99.90;;;;;;4902311;28;88496;-34
2022/05/06 03:23:54;;;;;;;27.35;24.40;;;7.60;99.90;;;;;;4903070;28;90014;-35
2022/05/06 03:26:20;;;;;;;35.53;27.20;;;7.60;99.90;;;;;;4903117;28;91711;-35
2022/05/06 03:28:46;;;;;;;33.65;26.27;;;7.60;99.90;;;;;;4902996;28;89721;-34
2022/05/06 03:31:13;;;;;;;32.10;26.42;;;7.60;99.90;;;;;;4903149;28;89939;-33
2022/05/06 03:33:41;;;;;;;33.88;23.77;;;7.50;99.90;;;;;;4902489;28;88137;-37
2022/05/06 03:36:09;;;;;;;39.58;27.38;;;7.60;99.90;;;;;;4902433;28;90389;-33
2022/05/06 03:38:35;;;;;;;40.40;27.37;;;7.50;99.90;;;;;;4901688;28;90190;-35
2022/05/06 03:41:00;;;;;;;36.72;28.20;;;7.50;99.90;;;;;;4903256;28;90953;-35
2022/05/06 03:43:27;;;;;;;38.90;28.65;;;7.50;99.90;;;;;;4902514;28;88166;-33
2022/05/06 03:45:53;;;;;;;32.58;25.10;;;7.50;99.90;;;;;;4902380;28;89952;-38
2022/05/06 03:48:24;;;;;;;41.88;28.35;;;7.50;99.90;;;;;;4903142;28;89541;-32
2022/05/06 03:53:38;;;;;;;42.13;28.00;;;7.50;99.90;;;;;;4902534;28;88536;-34
2022/05/06 03:56:04;;;;;;;35.40;27.25;;;7.50;99.90;;;;;;4902306;28;89303;-33
2022/05/06 03:58:30;;;;;;;35.92;26.65;;;7.50;99.90;;;;;;4902154;28;89689;-35
2022/05/06 04:00:56;;;;;;;36.72;26.33;;;7.50;99.90;;;;;;4902256;28;89967;-33
2022/05/06 04:03:22;;;;;;;40.70;27.17;;;7.50;99.90;;;;;;4902585;28;90463;-33
2022/05/06 04:05:47;;;;;;;43.25;27.77;;;7.50;99.90;;;;;;4902165;28;90270;-32
2022/05/06 04:08:13;;;;;;;40.35;29.00;;;7.50;99.90;;;;;;4902071;28;90684;-36
2022/05/06 04:10:39;;;;;;;34.78;26.27;;;7.50;99.90;;;;;;4902481;28;90707;-33
2022/05/06 04:13:05;;;;;;;33.88;26.52;;;7.60;99.90;;;;;;4901881;28;89260;-33
2022/05/06 04:15:33;;;;;;;38.28;26.65;;;7.60;99.90;;;;;;4902616;28;91660;-39
2022/05/06 04:18:00;;;;;;;37.13;27.83;;;7.60;99.90;;;;;;4902623;28;89751;-34
2022/05/06 04:25:55;;;;;;;38.95;28.85;;;7.70;99.90;;;;;;4902254;28;92097;-34
2022/05/06 04:28:21;;;;;;;38.10;27.17;;;7.80;99.90;;;;;;4901396;28;90693;-36
2022/05/06 04:30:47;;;;;;;32.88;26.35;;;7.80;99.90;;;;;;4902013;28;90466;-35
2022/05/06 04:33:12;;;;;;;35.00;26.35;;;7.90;99.90;;;;;;4902121;28;89325;-33
2022/05/06 04:35:39;;;;;;;35.55;27.02;;;7.90;99.90;;;;;;4901246;28;90425;-35
2022/05/06 04:38:05;;;;;;;37.92;27.88;;;8.10;99.90;;;;;;4902570;28;89559;-36
2022/05/06 04:40:30;;;;;;;35.97;26.42;;;8.20;99.90;;;;;;4901679;28;89335;-37
2022/05/06 04:42:56;;;;;;;39.05;29.35;;;8.30;99.90;;;;;;4901737;28;89125;-35
2022/05/06 04:45:21;;;;;;;40.33;28.45;;;8.50;99.90;;;;;;4902282;28;93034;-33
2022/05/06 04:47:47;;;;;;;37.13;27.35;;;8.70;99.90;;;;;;4901126;28;88595;-37
2022/05/06 04:50:13;;;;;;;31.90;25.77;;;9.00;99.90;;;;;;4902306;28;89795;-35
2022/05/06 04:52:38;;;;;;;31.73;25.67;;;9.40;99.90;;;;;;4901354;28;89354;-33
2022/05/06 04:55:05;;;;;;;38.90;27.00;;;9.80;99.90;;;;;;4901809;28;90574;-36
2022/05/06 04:57:30;;;;;;;33.97;25.45;;;10.30;99.90;;;;;;4901869;28;89528;-34
2022/05/06 04:59:56;;;;;;;35.15;26.05;;;10.50;99.90;;;;;;4901456;28;92828;-34
2022/05/06 05:02:21;;;;;;;38.13;25.52;;;10.40;99.90;;;;;;4902205;28;90848;-33
2022/05/06 05:04:52;;;;;;;30.10;24.33;;;10.20;99.90;;;;;;4901304;28;89320;-35
2022/05/06 05:07:18;;;;;;;31.05;25.83;;;9.80;99.90;;;;;;4901212;28;90258;-36
2022/05/06 05:09:44;;;;;;;34.90;26.98;;;9.50;99.90;;;;;;4901274;28;88692;-34
2022/05/06 05:12:10;;;;;;;40.20;26.75;;;9.40;99.90;;;;;;4901642;28;89477;-34
2022/05/06 05:14:36;;;;;;;42.90;26.33;;;9.40;99.90;;;;;;4901041;28;90233;-38
2022/05/06 05:17:01;;;;;;;33.50;21.98;;;9.30;99.90;;;;;;4901652;28;90741;-37
2022/05/06 05:19:27;;;;;;;32.83;23.23;;;9.40;99.90;;;;;;4900710;28;90750;-37
2022/05/06 05:21:53;;;;;;;31.75;25.35;;;9.60;99.90;;;;;;4901392;28;88923;-35
2022/05/06 05:24:19;;;;;;;26.67;22.75;;;9.70;99.90;;;;;;4901620;28;90154;-33
2022/05/06 05:26:44;;;;;;;28.92;22.08;;;9.70;99.90;;;;;;4901006;28;89529;-38
2022/05/06 05:29:10;;;;;;;29.23;23.02;;;9.60;99.90;;;;;;4901833;28;89931;-33
2022/05/06 05:31:36;;;;;;;26.33;19.75;;;9.60;99.90;;;;;;4900875;28;89820;-33
2022/05/06 05:34:01;;;;;;;27.65;20.85;;;9.60;99.90;;;;;;4901133;28;90862;-36
2022/05/06 05:36:27;;;;;;;34.38;23.52;;;9.70;99.90;;;;;;4900703;28;89872;-34
2022/05/06 05:38:52;;;;;;;27.63;21.45;;;9.80;99.90;;;;;;4900959;28;89573;-33
2022/05/06 05:41:18;;;;;;;23.70;20.23;;;9.90;99.90;;;;;;4901155;28;90129;-34
2022/05/06 05:49:12;;;;;;;45.88;22.75;;;10.30;99.90;;;;;;4900559;28;89733;-33
2022/05/06 05:51:37;;;;;;;43.70;23.13;;;10.60;99.90;;;;;;4901018;28;90082;-33
2022/05/06 05:54:04;;;;;;;28.55;21.20;;;10.60;99.90;;;;;;4900625;28;90508;-34
2022/05/06 05:56:30;;;;;;;33.05;23.35;;;10.70;99.90;;;;;;4900118;28;89681;-38
2022/05/06 05:58:55;;;;;;;34.83;25.77;;;10.90;99.90;;;;;;4901244;28;90883;-33
2022/05/06 06:01:21;;;;;;;31.23;25.95;;;11.00;99.90;;;;;;4900402;28;88217;-35
2022/05/06 06:03:46;;;;;;;35.22;27.30;;;11.10;99.90;;;;;;4900183;28;90330;-37
2022/05/06 06:06:12;;;;;;;58.40;26.05;;;11.20;99.90;;;;;;4898736;28;90772;-36
2022/05/06 06:08:38;;;;;;;28.85;22.17;;;11.40;99.90;;;;;;4900246;28;90906;-33
2022/05/06 06:11:04;;;;;;;31.38;24.55;;;11.60;99.90;;;;;;4900755;28;89241;-34
2022/05/06 06:13:32;;;;;;;30.00;23.90;;;11.80;99.90;;;;;;4900100;28;90272;-35
2022/05/06 06:15:58;;;;;;;33.78;23.58;;;11.90;99.90;;;;;;4900449;28;90233;-38
2022/05/06 06:18:26;;;;;;;36.92;25.05;;;12.00;99.90;;;;;;4901131;28;89842;-33
2022/05/06 06:20:54;;;;;;;29.85;23.48;;;12.30;99.90;;;;;;4902489;28;89649;-37
2022/05/06 06:23:20;;;;;;;104.60;32.85;;;12.40;99.90;;;;;;4901171;28;90042;-32
2022/05/06 06:25:46;;;;;;;36.00;24.58;;;12.50;99.90;;;;;;4900425;28;89620;-35
2022/05/06 06:28:11;;;;;;;29.77;23.27;;;12.80;99.90;;;;;;4902092;28;90022;-37
2022/05/06 06:30:37;;;;;;;35.63;24.85;;;13.00;99.90;;;;;;4903315;28;90712;-36
2022/05/06 06:33:03;;;;;;;31.40;24.95;;;13.30;99.90;;;;;;4904148;28;90268;-34
2022/05/06 06:35:29;;;;;;;32.38;22.85;;;13.50;99.90;;;;;;4903515;28;89471;-35
2022/05/06 06:37:55;;;;;;;34.35;24.55;;;13.70;99.90;;;;;;4903528;28;89545;-34
2022/05/06 06:40:21;;;;;;;39.17;24.83;;;13.50;99.90;;;;;;4903303;28;89095;-34
2022/05/06 06:42:47;;;;;;;29.90;24.25;;;13.90;99.90;;;;;;4903318;28;91005;-37
2022/05/06 06:45:13;;;;;;;34.67;25.55;;;14.30;99.90;;;;;;4904241;28;89100;-33
2022/05/06 06:47:39;;;;;;;34.95;25.42;;;14.80;99.90;;;;;;4903388;28;89776;-35
2022/05/06 06:50:06;;;;;;;34.95;23.38;;;15.10;99.90;;;;;;4903615;28;89272;-36
2022/05/06 06:52:31;;;;;;;34.50;23.75;;;15.30;99.90;;;;;;4899867;28;88371;-36
2022/05/06 06:54:57;;;;;;;36.80;26.08;;;15.50;99.90;;;;;;4902734;28;90873;-36
2022/05/06 06:57:25;;;;;;;36.58;26.73;;;15.80;99.90;;;;;;4904332;28;89763;-34
2022/05/06 06:59:50;;;;;;;38.70;24.37;;;15.70;99.90;;;;;;4903492;28;87971;-33
2022/05/06 07:02:16;;;;;;;35.33;24.23;;;15.90;99.90;;;;;;4903624;28;90794;-35
2022/05/06 07:04:41;;;;;;;40.60;24.02;;;16.40;99.90;;;;;;4903326;28;90256;-35
2022/05/06 07:12:35;;;;;;;28.23;22.38;;;16.40;99.90;;;;;;4900742;28;90109;-35
2022/05/06 07:15:02;;;;;;;30.13;23.05;;;16.80;99.90;;;;;;4901599;28;89807;-38
2022/05/06 07:17:28;;;;;;;31.90;21.77;;;17.20;99.90;;;;;;4901799;28;89881;-33
2022/05/06 07:19:54;;;;;;;24.48;20.23;;;17.20;99.90;;;;;;4899476;28;90065;-36
2022/05/06 07:22:19;;;;;;;28.00;22.00;;;17.40;99.90;;;;;;4914469;28;90201;-34
2022/05/06 07:24:45;;;;;;;67.82;24.85;;;17.30;99.90;;;;;;4898277;28;90276;-36
2022/05/06 07:27:11;;;;;;;52.15;22.63;;;17.40;99.90;;;;;;4898844;28;91094;-33
2022/05/06 07:29:36;;;;;;;25.95;19.30;;;17.60;99.90;;;;;;4900513;28;88439;-34
2022/05/06 07:32:03;;;;;;;31.58;20.15;;;17.80;99.90;;;;;;4900688;28;91270;-33
2022/05/06 07:34:28;;;;;;;25.55;18.55;;;17.60;99.90;;;;;;4901233;28;89598;-33
2022/05/06 07:36:54;;;;;;;21.35;16.90;;;17.30;99.90;;;;;;4899846;28;89120;-34
2022/05/06 07:39:19;;;;;;;21.83;17.67;;;17.20;99.90;;;;;;4900907;28;88460;-36
2022/05/06 07:41:46;;;;;;;26.17;20.75;;;17.00;99.90;;;;;;4899905;28;89471;-35
2022/05/06 07:44:11;;;;;;;22.35;17.98;;;17.50;99.90;;;;;;4900178;28;90763;-35
2022/05/06 07:46:38;;;;;;;24.05;19.67;;;17.90;99.90;;;;;;4901016;28;91020;-36
2022/05/06 07:49:04;;;;;;;23.30;17.65;;;17.60;99.90;;;;;;4900795;28;88579;-34
2022/05/06 07:51:30;;;;;;;29.30;19.55;;;17.00;99.90;;;;;;4914859;28;90279;-36
2022/05/06 07:53:56;;;;;;;25.85;19.58;;;17.60;99.90;;;;;;4900223;28;90213;-33
2022/05/06 07:56:25;;;;;;;22.20;17.05;;;17.80;99.90;;;;;;4900463;28;89425;-35
2022/05/06 07:58:52;;;;;;;23.80;15.95;;;18.10;99.90;;;;;;4900107;28;89119;-34
2022/05/06 08:04:32;;;;;;;19.50;14.13;;;18.10;99.90;;;;;;4900496;28;89068;-34
2022/05/06 08:06:50;;;;;;;22.05;17.25;;;17.90;99.90;;;;;;4898901;28;89401;-35
2022/05/06 08:09:15;;;;;;;23.80;19.67;;;18.00;99.90;;;;;;4900482;28;89276;-37
2022/05/06 08:11:41;;;;;;;31.60;20.42;;;17.90;99.90;;;;;;4900095;28;90422;-36
2022/05/06 08:14:07;;;;;;;23.20;17.92;;;18.40;99.90;;;;;;4899992;28;89259;-37
2022/05/06 08:16:32;;;;;;;27.60;17.83;;;18.30;99.90;;;;;;4898976;28;89966;-34
2022/05/06 08:18:58;;;;;;;22.23;18.33;;;18.00;99.90;;;;;;4900061;28;89659;-34
2022/05/06 08:21:23;;;;;;;20.80;16.02;;;17.70;99.90;;;;;;4899733;28;90525;-35
2022/05/06 08:23:49;;;;;;;20.85;17.42;;;17.70;99.90;;;;;;4899947;28;89780;-35
2022/05/06 08:26:15;;;;;;;22.27;17.08;;;17.70;99.90;;;;;;4900679;28;90544;-33
2022/05/06 08:28:40;;;;;;;148.82;32.80;;;18.40;99.90;;;;;;4899669;28;89637;-34
2022/05/06 08:31:06;;;;;;;20.23;14.57;;;18.00;99.90;;;;;;4899728;28;90161;-34
2022/05/06 08:33:31;;;;;;;21.27;15.05;;;17.70;99.90;;;;;;4900005;28;90358;-32
2022/05/06 08:35:57;;;;;;;21.85;18.20;;;17.80;99.90;;;;;;4891736;28;90366;-34
2022/05/06 08:38:22;;;;;;;27.33;17.77;;;18.00;99.90;;;;;;4899041;28;89228;-36
2022/05/06 08:40:49;;;;;;;18.27;15.27;;;17.80;99.90;;;;;;4898292;28;90180;-33
2022/05/06 08:43:15;;;;;;;19.50;15.52;;;18.10;99.90;;;;;;4898551;28;90259;-34
2022/05/06 08:51:12;;;;;;;16.15;14.10;;;18.00;99.90;;;;;;4899860;28;89868;-35
2022/05/06 08:53:39;;;;;;;18.70;15.05;;;18.40;99.90;;;;;;4899724;28;89166;-34
2022/05/06 08:56:05;;;;;;;24.98;14.40;;;18.00;99.90;;;;;;4899208;28;89582;-36
2022/05/06 08:58:34;;;;;;;18.38;14.18;;;18.00;99.90;;;;;;4898447;28;88628;-33
2022/05/06 09:01:10;;;;;;;20.92;15.88;;;17.80;99.90;;;;;;4899670;28;90229;-35
2022/05/06 09:03:41;;;;;;;20.40;13.77;;;17.40;99.90;;;;;;4899631;28;89781;-35
2022/05/06 09:06:21;;;;;;;20.80;15.27;;;18.20;99.90;;;;;;4899967;28;89619;-35
2022/05/06 09:08:48;;;;;;;21.30;16.83;;;18.90;99.90;;;;;;4899818;28;89619;-35
2022/05/06 09:11:16;;;;;;;17.07;13.83;;;18.60;99.90;;;;;;4899319;28;90606;-36
2022/05/06 09:13:55;;;;;;;15.57;13.23;;;18.60;99.90;;;;;;4899124;28;91163;-37
2022/05/06 09:16:40;;;;;;;18.90;15.20;;;18.60;99.90;;;;;;4899165;28;89891;-34
2022/05/06 09:19:24;;;;;;;16.67;13.82;;;18.80;99.90;;;;;;4879664;28;88519;-37
2022/05/06 09:22:17;;;;;;;15.82;14.18;;;18.70;99.90;;;;;;4880183;28;90338;-35
2022/05/06 09:24:52;;;;;;;16.77;15.00;;;19.10;99.90;;;;;;4879390;28;90539;-38
2022/05/06 09:27:21;;;;;;;17.00;14.23;;;19.20;99.90;;;;;;4879707;28;91582;-37
2022/05/06 09:29:54;;;;;;;16.35;13.02;;;19.50;99.90;;;;;;4886542;28;88912;-36
2022/05/06 09:32:24;;;;;;;19.33;14.10;;;19.20;99.90;;;;;;4898741;28;90934;-36
2022/05/06 09:35:09;;;;;;;15.82;11.02;;;19.00;99.90;;;;;;4898235;28;90188;-39
2022/05/06 09:37:41;;;;;;;60.22;17.20;;;19.30;99.90;;;;;;4898704;28;89785;-34
2022/05/06 09:40:09;;;;;;;13.82;10.05;;;19.70;99.90;;;;;;4898094;28;89799;-37
2022/05/06 09:42:37;;;;;;;66.93;16.77;;;19.80;99.90;;;;;;4898404;28;90303;-38
2022/05/06 09:45:03;;;;;;;16.70;9.80;;;19.60;99.90;;;;;;4898870;28;89816;-35
2022/05/06 09:47:32;;;;;;;13.07;10.13;;;19.40;99.90;;;;;;4913307;28;89101;-35
2022/05/06 09:49:58;;;;;;;11.57;10.35;;;20.20;99.90;;;;;;4897215;28;90145;-34
2022/05/06 09:52:23;;;;;;;15.75;12.55;;;19.70;99.90;;;;;;4898071;28;94784;-37
2022/05/06 09:54:49;;;;;;;12.82;9.43;;;19.80;99.90;;;;;;4896604;28;89963;-35
2022/05/06 09:57:18;;;;;;;8.98;8.07;;;19.50;99.90;;;;;;4899309;28;89368;-35
2022/05/06 09:59:44;;;;;;;7.00;6.30;;;19.60;99.90;;;;;;4899512;28;89667;-34
2022/05/06 10:02:10;;;;;;;7.05;5.25;;;19.60;99.90;;;;;;4899020;28;91300;-34
2022/05/06 10:04:37;;;;;;;9.43;7.65;;;19.90;99.90;;;;;;4898933;28;89753;-35
2022/05/06 10:07:11;;;;;;;9.18;8.07;;;20.30;99.90;;;;;;4899372;28;88671;-34
2022/05/06 10:10:01;;;;;;;8.35;6.35;;;20.30;99.90;;;;;;4898864;28;89184;-36
2022/05/06 10:12:45;;;;;;;6.68;5.28;;;19.90;99.90;;;;;;4895882;28;90170;-33
2022/05/06 10:15:13;;;;;;;6.25;4.78;;;20.50;99.90;;;;;;4898065;28;89818;-34
2022/05/06 10:17:52;;;;;;;13.70;6.03;;;20.50;99.60;;;;;;4898753;28;89424;-34
2022/05/06 10:20:41;;;;;;;8.35;5.53;;;20.50;90.60;;;;;;4899038;28;87582;-35
2022/05/06 10:23:15;;;;;;;4.00;3.70;;;20.70;99.90;;;;;;4899182;28;89851;-34
2022/05/06 10:25:41;;;;;;;4.05;3.67;;;20.60;93.80;;;;;;4898896;28;89758;-34
2022/05/06 10:34:08;;;;;;;8.20;4.72;;;20.20;98.80;;;;;;4899401;28;90171;-35
2022/05/06 10:36:42;;;;;;;4.70;4.32;;;20.40;89.50;;;;;;4898598;28;89729;-36
2022/05/06 10:39:21;;;;;;;6.03;4.35;;;20.30;98.40;;;;;;4898655;28;89570;-35
2022/05/06 10:42:08;;;;;;;7.07;5.70;;;20.40;99.20;;;;;;4898331;28;90220;-36
2022/05/06 10:44:38;;;;;;;4.63;4.23;;;20.40;99.90;;;;;;4898683;28;90108;-37
2022/05/06 10:47:39;;;;;;;6.63;5.03;;;20.70;98.40;;;;;;4898876;28;90920;-36
2022/05/06 10:50:16;;;;;;;5.57;4.32;;;20.70;99.90;;;;;;4897480;28;89522;-35
2022/05/06 10:52:43;;;;;;;5.32;4.82;;;20.90;96.10;;;;;;4898745;28;88434;-35
2022/05/06 10:55:12;;;;;;;5.72;5.05;;;20.10;95.30;;;;;;4898389;28;90436;-34
2022/05/06 10:57:55;;;;;;;6.40;5.75;;;20.30;96.60;;;;;;4897795;28;89778;-37
2022/05/06 11:00:22;;;;;;;5.00;4.60;;;20.40;95.10;;;;;;4898594;28;89071;-35
2022/05/06 11:02:49;;;;;;;4.82;4.28;;;20.50;99.90;;;;;;4897872;28;88194;-36
2022/05/06 11:05:16;;;;;;;6.10;5.50;;;20.80;99.60;;;;;;4898936;28;91540;-36
2022/05/06 11:07:45;;;;;;;4.85;4.43;;;20.70;99.90;;;;;;4900262;28;90538;-34
2022/05/06 11:10:19;;;;;;;6.13;5.53;;;20.90;95.90;;;;;;4901629;28;90612;-35
2022/05/06 11:12:56;;;;;;;6.30;5.03;;;21.10;99.90;;;;;;4901792;28;88151;-33
2022/05/06 11:15:24;;;;;;;5.82;4.90;;;21.10;98.70;;;;;;4901520;28;90210;-38
2022/05/06 11:17:50;;;;;;;5.65;4.45;;;21.30;89.70;;;;;;4900705;28;89968;-34
2022/05/06 11:20:19;;;;;;;5.43;4.78;;;21.20;99.90;;;;;;4901539;28;89644;-35
2022/05/06 11:22:56;;;;;;;6.10;5.53;;;21.40;91.70;;;;;;4901793;28;88519;-34
2022/05/06 11:25:23;;;;;;;8.55;5.47;;;21.30;93.00;;;;;;4901926;28;90678;-39
2022/05/06 11:27:53;;;;;;;5.65;5.03;;;21.30;82.30;;;;;;4899633;28;89934;-35
2022/05/06 11:30:20;;;;;;;7.18;4.82;;;20.70;90.70;;;;;;4901638;28;89728;-35
2022/05/06 11:32:49;;;;;;;3.88;3.58;;;20.80;86.60;;;;;;4901907;28;89067;-37
2022/05/06 11:35:26;;;;;;;8.02;5.03;;;21.10;86.90;;;;;;4901734;28;90198;-35
2022/05/06 11:37:52;;;;;;;5.78;4.32;;;21.10;80.80;;;;;;4900270;28;89491;-35
2022/05/06 11:40:35;;;;;;;4.88;3.50;;;20.90;85.10;;;;;;4900986;28;89843;-37
2022/05/06 11:43:02;;;;;;;2.88;2.67;;;21.20;76.50;;;;;;4901168;28;89525;-36
2022/05/06 11:48:13;;;;;;;6.18;3.45;;;20.80;72.50;;;;;;4900640;28;89721;-37
2022/05/06 11:50:40;;;;;;;4.03;2.50;;;21.00;69.80;;;;;;4901006;28;89478;-37
2022/05/06 11:53:08;;;;;;;3.33;2.63;;;21.00;80.10;;;;;;4901485;28;89715;-35
2022/05/06 11:55:39;;;;;;;29.90;6.10;;;21.10;72.20;;;;;;4900478;28;90589;-38
2022/05/06 11:58:05;;;;;;;3.90;3.60;;;21.30;74.20;;;;;;4900526;28;91133;-35
2022/05/06 12:00:32;;;;;;;6.15;3.05;;;21.20;70.40;;;;;;4900532;28;89260;-35
2022/05/06 12:03:02;;;;;;;3.47;2.83;;;21.20;69.10;;;;;;4901481;28;89327;-33
2022/05/06 12:05:28;;;;;;;3.42;2.65;;;21.20;73.80;;;;;;4900928;28;90351;-34
2022/05/06 12:07:54;;;;;;;4.43;3.10;;;21.30;73.50;;;;;;4899961;28;89274;-33
2022/05/06 12:10:30;;;;;;;6.32;4.07;;;21.40;71.00;;;;;;4899555;28;89409;-36
2022/05/06 12:12:56;;;;;;;25.58;7.53;;;21.60;63.80;;;;;;4900182;28;87982;-37
2022/05/06 12:15:37;;;;;;;7.00;5.03;;;21.50;67.10;;;;;;4901138;28;90253;-38
2022/05/06 12:18:07;;;;;;;3.22;2.97;;;21.40;62.70;;;;;;4899302;28;89761;-38
2022/05/06 12:20:41;;;;;;;4.93;3.13;;;21.60;67.40;;;;;;4900885;28;91423;-35
2022/05/06 12:23:08;;;;;;;3.83;3.22;;;21.50;63.60;;;;;;4900623;28;90279;-36
2022/05/06 12:25:35;;;;;;;2.90;2.53;;;21.40;65.90;;;;;;4900298;28;90241;-37
2022/05/06 12:28:10;;;;;;;2.83;2.53;;;21.50;63.30;;;;;;4900637;28;89100;-37
2022/05/06 12:30:37;;;;;;;2.97;2.58;;;21.20;57.00;;;;;;4900322;28;89853;-36
2022/05/06 12:33:09;;;;;;;7.07;4.05;;;21.60;58.20;;;;;;4900970;28;89591;-34
2022/05/06 12:35:57;;;;;;;3.42;3.10;;;21.50;61.00;;;;;;4898915;28;90653;-35
2022/05/06 12:38:24;;;;;;;3.00;2.80;;;21.50;66.70;;;;;;4899950;28;89882;-37
2022/05/06 12:40:51;;;;;;;4.15;3.72;;;21.50;63.60;;;;;;4978726;23;90819;-38
2022/05/06 12:43:24;;;;;;;35.30;6.80;;;21.50;62.50;;;;;;4958427;28;88280;-37
2022/05/06 12:45:55;;;;;;;7.18;3.83;;;21.50;65.90;;;;;;4958388;28;90285;-34
2022/05/06 12:51:06;;;;;;;49.15;10.30;;;21.90;65.70;;;;;;4959103;28;90386;-38
2022/05/06 12:53:35;;;;;;;6.78;4.75;;;21.60;67.30;;;;;;4958131;28;88800;-33
2022/05/06 12:56:02;;;;;;;5.68;5.07;;;21.50;71.50;;;;;;4958607;28;90139;-38
2022/05/06 12:58:28;;;;;;;5.00;4.57;;;21.40;76.70;;;;;;4958370;28;90506;-35
2022/05/06 13:01:02;;;;;;;8.77;3.50;;;21.60;67.20;;;;;;4957968;28;89066;-36
2022/05/06 13:03:29;;;;;;;3.00;2.80;;;21.70;67.30;;;;;;4958405;28;88528;-36
2022/05/06 13:05:55;;;;;;;5.45;4.43;;;21.60;67.80;;;;;;4958485;28;90343;-35
2022/05/06 13:08:21;;;;;;;3.25;2.63;;;21.50;69.60;;;;;;4957938;28;90269;-34
2022/05/06 13:10:46;;;;;;;2.13;1.63;;;21.30;62.60;;;;;;4958185;28;89709;-34
2022/05/06 13:13:13;;;;;;;9.30;3.92;;;21.50;64.40;;;;;;4957713;28;88366;-37
2022/05/06 13:15:39;;;;;;;3.45;3.10;;;22.00;63.90;;;;;;4957558;28;90282;-36
2022/05/06 13:18:05;;;;;;;5.75;2.63;;;21.80;63.00;;;;;;4958115;28;90301;-37
2022/05/06 13:20:31;;;;;;;2.50;2.30;;;21.70;62.10;;;;;;4958032;28;90798;-37
2022/05/06 13:22:56;;;;;;;2.97;2.28;;;21.80;59.70;;;;;;4957780;28;88697;-38
2022/05/06 13:25:22;;;;;;;2.05;1.45;;;21.70;60.20;;;;;;4957645;28;90421;-35